Terminal Aerodrome Forecast
Issued by NWS

Home | Current Version | Previous Version | Text Only | Print | Product List | Glossary On
Versions: 1 2 3 4 5 6 7 8 9 10 11 12 13 14 15 16
000
FTUS46 KSGX 240500
TAFCRQ
TAF
KCRQ 240520Z 2406/2506 VRB04KT P6SM FEW006
     FM240700 VRB04KT 4SM BR BKN005
     FM241000 VRB04KT 1SM BR BKN003
     FM241600 VRB04KT 5SM BR SCT005
     FM241800 27007KT P6SM SKC
     FM250200 VRB04KT P6SM FEW006=

USA.gov is the U.S. government's official web portal to all federal, state and local government web resources and services.